[ ตารางข้อมูล ] [ Min-Max ] [ วันนี้2 ] [ วันนี้4 ] [ เทียบ-A 3วัน ] [ เทียบ-B 4วัน ]   

วันนี้4   [ ◀ ช่วงเก่ากว่า ] [ ช่วงที่ 27 ] [ ช่วงใหม่กว่า ▶ ] [ ล่าสุด ]    [ 3 ชั่วโมง ] [ 6 ชั่วโมง ] [ 12 ชั่วโมง ] [ 24 ชั่วโมง ]   วันนี้4

อุณภูมิในตู้ Knockdown4529  ราย 6 ชั่วโมง  ที่วัดได้ ในช่วงวันเวลา 24/08/2026 (20:42) ถึง 25/08/2026 (02:42) 
ความชื้นในตู้ Knockdown4529  ราย 6 ชั่วโมง  ที่วัดได้ ในช่วงวันเวลา 24/08/2026 (20:42) ถึง 25/08/2026 (02:42) 
การใช้ไฟฟ้าในตู้ Knockdown4529  ราย 6 ชั่วโมง  ที่วัดได้ ในช่วงวันเวลา 24/08/2026 (20:42) ถึง 25/08/2026 (02:42) 

  DS18B20SHTC3PZEM-004TWiFi 
IDDate d/m/Y & Timedata1
สูง
data2
ต่ำ
data3
นอก
temp
pcb
hum
pcb
VoltAmpWattrssiTime
 15743  25/08/2026 02:40:50  30.1  30.2  28.1  30.8  66.8  232.4  0.04  4.5  -77  02:40 
 15742  25/08/2026 02:36:05  30.1  30.2  28.2  30.9  66.7  230.0  0.04  4.5  -81  02:36 
 15741  25/08/2026 02:31:22  30.1  30.2  28.1  31.1  66.8  230.6  0.04  4.5  -78  02:31 
 15740  25/08/2026 02:26:39  30.2  30.2  28.1  31.1  66.7  232.1  0.04  4.5  -82  02:26 
 15739  25/08/2026 02:21:56  30.2  30.2  28.1  31.1  66.8  228.8  0.04  4.5  -78  02:21 
 15738  25/08/2026 02:17:12  30.2  30.3  28.0  30.9  66.7  229.5  0.04  4.5  -82  02:17 
 15737  25/08/2026 02:12:28  30.2  30.3  27.8  31.1  66.8  228.3  0.04  4.5  -78  02:12 
 15736  25/08/2026 02:07:45  30.2  30.3  27.5  31.1  66.7  228.8  0.04  4.5  -82  02:07 
 15735  25/08/2026 02:02:59  30.2  30.3  27.4  31.1  66.7  227.1  0.04  4.5  -81  02:02 
 15734  25/08/2026 01:58:16  30.3  30.4  27.7  31.2  66.6  227.3  0.04  4.5  -81  01:58 
 15733  25/08/2026 01:53:33  30.3  30.4  27.8  31.2  66.7  227.2  0.04  4.5  -81  01:53 
 15732  25/08/2026 01:48:50  30.4  30.4  27.4  31.1  66.7  227.0  0.04  4.5  -82  01:48 
 15731  25/08/2026 01:44:04  30.4  30.4  27.4  31.4  66.8  227.3  0.04  4.5  -81  01:44 
 15730  25/08/2026 01:39:21  30.4  30.4  27.5  31.5  66.7  226.7  0.04  4.5  -79  01:39 
 15729  25/08/2026 01:34:37  30.4  30.4  27.5  31.4  66.4  225.0  0.04  4.5  -82  01:34 
 15728  25/08/2026 01:29:53  30.4  30.4  27.7  31.4  66.5  228.2  0.04  4.5  -81  01:29 
 15727  25/08/2026 01:25:10  30.4  30.5  27.7  31.2  66.6  224.4  0.04  4.5  -77  01:25 
 15726  25/08/2026 01:20:26  30.4  30.5  28.0  31.2  66.5  228.8  0.04  4.5  -80  01:20 
 15725  25/08/2026 01:15:42  30.4  30.5  27.9  31.4  66.6  226.7  0.04  4.5  -79  01:15 
 15724  25/08/2026 01:10:59  30.4  30.6  27.7  31.4  66.5  226.8  0.04  4.5  -81  01:10 
 15723  25/08/2026 01:06:16  30.5  30.6  27.7  31.4  66.6  227.0  0.04  4.5  -78  01:06 
 15722  25/08/2026 01:01:32  30.5  30.6  27.9  31.5  66.5  226.5  0.04  4.5  -78  01:01 
 15721  25/08/2026 00:56:49  30.5  30.6  28.1  31.5  66.5  226.3  0.04  4.5  -81  00:56 
 15720  25/08/2026 00:52:06  30.6  30.6  28.3  31.6  66.4  226.3  0.04  4.5  -81  00:52 

Data every 5 minute.


ใช้เวลาประมวลผล 0.01052 วินาที